Time;durP1;ratioP1;P1;durP2;ratioP2;P2;SDS_P1;SDS_P2;PMS_P1;PMS_P2;Temp;Humidity;BMP_temperature;BMP_pressure;BME280_temperature;BME280_humidity;BME280_pressure;Samples;Min_cycle;Max_cycle;Signal;HPM_P1;HPM_P2
2022/03/02 00:02:18;;;;;;;33.73;19.13;;;5.40;99.90;;;;;;4899736;29;20386;-95
2022/03/02 00:04:44;;;;;;;32.27;19.10;;;5.00;99.90;;;;;;4900146;29;20473;-94
2022/03/02 00:07:09;;;;;;;35.57;19.17;;;5.40;99.90;;;;;;4899654;29;20106;-94
2022/03/02 00:09:41;;;;;;;32.87;19.20;;;5.30;99.90;;;;;;4900175;29;20048;-94
2022/03/02 00:12:07;;;;;;;30.70;17.80;;;6.30;99.90;;;;;;4899268;29;20051;-94
2022/03/02 00:14:38;;;;;;;30.03;18.13;;;5.40;99.90;;;;;;4900225;29;20045;-95
2022/03/02 00:17:04;;;;;;;32.00;18.83;;;5.30;99.90;;;;;;4900357;29;20056;-95
2022/03/02 00:19:30;;;;;;;32.30;18.73;;;6.00;99.90;;;;;;4899655;29;20099;-94
2022/03/02 00:21:56;;;;;;;32.57;19.43;;;5.10;99.90;;;;;;4900193;29;20135;-94
2022/03/02 00:24:21;;;;;;;35.83;19.57;;;5.50;99.90;;;;;;4899755;29;20044;-95
2022/03/02 00:26:59;;;;;;;33.47;19.53;;;5.60;99.90;;;;;;4899901;29;20079;-94
2022/03/02 00:29:27;;;;;;;30.40;19.20;;;5.10;99.90;;;;;;4900609;29;20047;-96
2022/03/02 00:31:53;;;;;;;31.33;17.87;;;5.10;99.90;;;;;;4904745;29;20040;-95
2022/03/02 00:34:19;;;;;;;35.30;19.87;;;5.20;99.90;;;;;;4911955;29;20060;-94
2022/03/02 00:36:53;;;;;;;36.30;19.93;;;5.20;99.90;;;;;;4926424;29;20032;-94
2022/03/02 00:39:24;;;;;;;33.40;18.83;;;5.30;99.90;;;;;;4918269;29;20080;-95
2022/03/02 00:41:51;;;;;;;32.60;18.13;;;6.00;99.90;;;;;;4904092;29;20048;-94
2022/03/02 00:44:19;;;;;;;33.63;19.37;;;6.30;99.90;;;;;;4903224;29;20132;-94
2022/03/02 00:46:46;;;;;;;33.30;19.13;;;5.70;99.90;;;;;;4903295;29;20055;-94
2022/03/02 00:49:17;;;;;;;34.17;18.53;;;5.20;99.90;;;;;;4903011;29;20047;-95
2022/03/02 00:51:43;;;;;;;33.17;18.30;;;4.90;99.90;;;;;;4903484;29;20416;-95
2022/03/02 00:54:15;;;;;;;35.93;19.97;;;5.60;99.90;;;;;;4902415;29;20044;-94
2022/03/02 00:56:41;;;;;;;32.73;18.67;;;4.70;99.90;;;;;;4902770;29;20401;-94
2022/03/02 00:59:06;;;;;;;32.03;18.13;;;4.60;99.90;;;;;;4903004;29;20048;-95
2022/03/02 01:01:32;;;;;;;37.03;19.60;;;4.90;99.90;;;;;;4902613;29;20044;-95
2022/03/02 01:04:07;;;;;;;36.03;19.57;;;4.00;99.90;;;;;;4903212;29;20047;-94
2022/03/02 01:06:33;;;;;;;35.43;19.63;;;6.00;99.90;;;;;;4902877;29;20056;-94
2022/03/02 01:09:08;;;;;;;36.60;20.47;;;4.90;99.90;;;;;;4902062;29;20044;-94
2022/03/02 01:11:42;;;;;;;35.80;19.87;;;4.80;99.90;;;;;;4902921;29;20079;-94
2022/03/02 01:14:14;;;;;;;32.37;19.63;;;5.40;99.90;;;;;;4902538;29;20036;-94
2022/03/02 01:16:43;;;;;;;33.67;19.57;;;6.10;99.90;;;;;;4902206;29;20142;-94
2022/03/02 01:19:18;;;;;;;35.80;20.20;;;4.90;99.90;;;;;;4917024;29;20060;-95
2022/03/02 01:21:47;;;;;;;37.07;20.17;;;5.50;99.90;;;;;;4911916;29;20083;-94
2022/03/02 01:24:16;;;;;;;34.43;18.97;;;5.50;99.90;;;;;;4914504;29;20059;-95
2022/03/02 01:26:54;;;;;;;37.83;19.87;;;4.80;99.90;;;;;;4902501;29;20416;-94
2022/03/02 01:29:30;;;;;;;36.30;20.13;;;5.00;99.90;;;;;;4902210;29;20043;-94
2022/03/02 01:32:10;;;;;;;37.93;19.63;;;4.80;99.90;;;;;;4902812;29;20048;-94
2022/03/02 01:34:41;;;;;;;35.23;21.13;;;4.60;99.90;;;;;;4902718;29;20048;-94
2022/03/02 01:37:10;;;;;;;38.23;20.37;;;4.70;99.90;;;;;;4901587;29;20047;-94
2022/03/02 01:39:39;;;;;;;35.83;21.27;;;5.90;99.90;;;;;;4902029;29;20138;-94
2022/03/02 01:42:07;;;;;;;35.00;19.90;;;4.60;99.90;;;;;;4901631;29;20055;-94
2022/03/02 01:44:35;;;;;;;35.03;20.13;;;4.80;99.90;;;;;;4901367;29;20047;-94
2022/03/02 01:47:01;;;;;;;34.37;19.53;;;6.10;99.90;;;;;;4901679;29;20050;-94
2022/03/02 01:49:34;;;;;;;35.90;19.47;;;5.10;99.90;;;;;;4901338;29;20425;-93
2022/03/02 01:51:59;;;;;;;33.67;20.33;;;5.10;99.90;;;;;;4901760;29;20054;-95
2022/03/02 01:54:25;;;;;;;35.53;20.93;;;4.60;99.90;;;;;;4901641;29;20048;-94
2022/03/02 01:56:51;;;;;;;32.23;18.93;;;5.30;99.90;;;;;;4901465;29;20040;-94
2022/03/02 01:59:25;;;;;;;36.50;20.43;;;4.50;99.90;;;;;;4901607;29;20044;-94
2022/03/02 02:01:56;;;;;;;34.72;20.20;;;4.30;99.90;;;;;;4901223;29;20404;-93
2022/03/02 02:04:22;;;;;;;37.17;21.33;;;4.70;99.90;;;;;;4901353;29;20075;-94
2022/03/02 02:06:54;;;;;;;37.10;20.90;;;4.90;99.90;;;;;;4901454;29;20084;-95
2022/03/02 02:09:20;;;;;;;38.13;21.07;;;3.90;99.90;;;;;;4901103;29;20055;-94
2022/03/02 02:11:46;;;;;;;38.07;22.13;;;4.40;99.90;;;;;;4901534;29;20051;-94
2022/03/02 02:14:14;;;;;;;36.20;20.23;;;4.60;99.90;;;;;;4900901;29;20044;-94
2022/03/02 02:16:52;;;;;;;37.90;20.20;;;4.80;99.90;;;;;;4901926;29;20520;-94
2022/03/02 02:19:24;;;;;;;38.00;20.57;;;4.60;99.90;;;;;;4900659;29;20095;-93
2022/03/02 02:22:02;;;;;;;35.90;20.80;;;4.80;99.90;;;;;;4910376;29;20092;-93
2022/03/02 02:24:33;;;;;;;38.00;21.97;;;3.50;99.90;;;;;;4905825;29;20051;-94
2022/03/02 02:27:02;;;;;;;37.23;20.57;;;5.50;99.90;;;;;;4901379;29;20051;-93
2022/03/02 02:29:39;;;;;;;36.70;20.23;;;4.40;99.90;;;;;;4910235;23;20091;-94
2022/03/02 02:32:08;;;;;;;38.50;21.30;;;4.40;99.90;;;;;;4919272;29;20559;-94
2022/03/02 02:34:49;;;;;;;37.83;21.33;;;4.40;99.90;;;;;;4919236;29;20115;-93
2022/03/02 02:37:58;;;;;;;36.53;20.80;;;4.20;99.90;;;;;;4919532;29;20727;-94
2022/03/02 02:40:32;;;;;;;35.70;20.77;;;4.60;99.90;;;;;;4898488;29;20122;-94
2022/03/02 02:43:01;;;;;;;39.23;20.30;;;4.60;99.90;;;;;;4919735;29;20047;-94
2022/03/02 02:45:26;;;;;;;34.93;19.93;;;4.00;99.90;;;;;;4919350;29;20055;-93
2022/03/02 02:47:54;;;;;;;36.50;19.97;;;4.20;99.90;;;;;;4919435;29;20043;-94
2022/03/02 02:50:45;;;;;;;33.57;19.93;;;4.30;99.90;;;;;;4919777;29;20048;-94
2022/03/02 02:53:17;;;;;;;34.63;19.70;;;4.20;99.90;;;;;;4918858;29;20138;-93
2022/03/02 02:55:46;;;;;;;38.87;21.33;;;4.20;99.90;;;;;;4920233;29;20051;-94
2022/03/02 02:58:24;;;;;;;40.87;20.60;;;4.70;99.90;;;;;;4919494;29;20044;-94
2022/03/02 03:00:50;;;;;;;38.53;20.67;;;3.40;99.90;;;;;;4922105;29;20407;-93
2022/03/02 03:03:16;;;;;;;35.53;20.07;;;4.80;99.90;;;;;;4937539;29;20143;-92
2022/03/02 03:05:44;;;;;;;34.53;19.80;;;3.80;99.90;;;;;;4938268;29;20133;-94
2022/03/02 03:08:11;;;;;;;35.37;20.17;;;4.00;99.90;;;;;;4937818;29;20129;-93
2022/03/02 03:10:42;;;;;;;38.67;21.33;;;3.90;99.90;;;;;;4938559;29;20047;-94
2022/03/02 03:13:08;;;;;;;36.93;19.73;;;4.30;99.90;;;;;;4938361;29;20047;-94
2022/03/02 03:15:40;;;;;;;37.20;21.23;;;4.00;99.90;;;;;;4938910;29;20082;-94
2022/03/02 03:18:10;;;;;;;36.07;20.53;;;4.00;99.90;;;;;;4939038;29;20057;-94
2022/03/02 03:20:48;;;;;;;36.37;20.23;;;4.10;99.90;;;;;;4938303;29;20411;-94
2022/03/02 03:23:22;;;;;;;38.07;20.67;;;4.00;99.90;;;;;;4943191;29;20051;-94
2022/03/02 03:26:00;;;;;;;36.50;20.33;;;3.90;99.90;;;;;;4960792;29;20043;-93
2022/03/02 03:28:25;;;;;;;35.33;20.77;;;4.10;99.90;;;;;;4954434;29;20126;-93
2022/03/02 03:30:51;;;;;;;36.60;19.50;;;4.90;99.90;;;;;;4938168;29;20164;-94
2022/03/02 03:33:17;;;;;;;34.43;19.67;;;5.20;99.90;;;;;;4938195;29;20059;-94
2022/03/02 03:35:48;;;;;;;36.53;20.80;;;4.00;99.90;;;;;;4938442;29;20050;-94
2022/03/02 03:38:29;;;;;;;36.33;20.43;;;4.00;99.90;;;;;;4938137;29;20097;-94
2022/03/02 03:41:06;;;;;;;37.60;20.50;;;4.30;99.90;;;;;;4938271;29;20043;-94
2022/03/02 03:43:33;;;;;;;38.03;20.57;;;4.70;99.90;;;;;;4937706;29;20051;-94
2022/03/02 03:46:05;;;;;;;37.43;20.33;;;4.40;99.90;;;;;;4938053;29;20075;-94
2022/03/02 03:48:30;;;;;;;39.67;21.10;;;5.30;99.90;;;;;;4938095;29;20256;-94
2022/03/02 03:50:56;;;;;;;39.47;20.37;;;3.60;99.90;;;;;;4937746;29;20043;-94
2022/03/02 03:53:25;;;;;;;36.63;20.57;;;3.80;99.90;;;;;;4937564;29;20520;-94
2022/03/02 03:55:50;;;;;;;40.63;21.07;;;4.80;99.90;;;;;;4938013;29;20447;-94
2022/03/02 03:58:16;;;;;;;36.87;21.33;;;3.70;99.90;;;;;;4936939;29;20047;-93
2022/03/02 04:00:42;;;;;;;37.03;20.90;;;3.80;99.90;;;;;;4938029;29;20075;-94
2022/03/02 04:03:07;;;;;;;36.67;20.90;;;5.10;99.90;;;;;;4937286;29;20043;-94
2022/03/02 04:05:33;;;;;;;38.27;21.93;;;5.50;99.90;;;;;;4939056;29;20043;-93
2022/03/02 04:08:16;;;;;;;40.43;20.93;;;3.80;99.90;;;;;;4940717;29;20066;-93
2022/03/02 04:10:45;;;;;;;36.47;19.63;;;4.70;99.90;;;;;;4925152;29;20054;-93
2022/03/02 04:13:22;;;;;;;;;;;;;;;;;;;;;
2022/03/02 04:15:57;;;;;;;38.38;20.70;;;3.80;99.90;;;;;;4940985;29;20057;-93
2022/03/02 04:18:41;;;;;;;35.97;20.00;;;5.00;99.90;;;;;;4940780;29;20394;-92
2022/03/02 04:21:08;;;;;;;39.45;21.25;;;3.20;99.90;;;;;;4941214;29;20043;-93
2022/03/02 04:23:33;;;;;;;36.53;20.50;;;3.70;99.90;;;;;;4941308;29;20093;-93
2022/03/02 04:26:02;;;;;;;35.37;19.50;;;3.60;99.90;;;;;;4940828;29;20066;-94
2022/03/02 04:28:37;;;;;;;35.23;19.90;;;3.90;99.90;;;;;;4940808;29;20047;-94
2022/03/02 04:31:53;;;;;;;35.90;20.23;;;3.80;99.90;;;;;;4941172;29;20086;-94
2022/03/02 04:34:20;;;;;;;36.93;20.73;;;3.50;99.90;;;;;;4942604;29;20047;-94
2022/03/02 04:36:46;;;;;;;38.10;20.03;;;3.70;99.90;;;;;;4951979;29;20047;-93
2022/03/02 04:39:23;;;;;;;36.23;20.43;;;4.20;99.90;;;;;;4939881;29;20054;-94
2022/03/02 04:41:49;;;;;;;38.20;20.77;;;4.50;99.90;;;;;;4941347;29;20628;-94
2022/03/02 04:44:15;;;;;;;35.70;20.00;;;3.80;99.90;;;;;;4940886;29;20053;-94
2022/03/02 04:46:41;;;;;;;35.67;19.80;;;4.40;99.90;;;;;;4940502;29;20055;-93
2022/03/02 04:49:13;;;;;;;38.33;20.30;;;3.60;99.90;;;;;;4940745;29;20043;-92
2022/03/02 04:51:41;;;;;;;36.13;19.23;;;4.50;99.90;;;;;;4940933;29;20051;-93
2022/03/02 04:54:08;;;;;;;38.13;21.20;;;4.60;99.90;;;;;;4939859;29;20558;-93
2022/03/02 04:56:34;;;;;;;37.00;20.57;;;3.80;99.90;;;;;;4940668;29;20094;-93
2022/03/02 04:59:03;;;;;;;37.63;20.87;;;4.50;99.90;;;;;;4940525;29;20047;-94
2022/03/02 05:01:30;;;;;;;36.90;21.03;;;3.60;99.90;;;;;;4923027;29;20051;-94
2022/03/02 05:03:56;;;;;;;39.40;19.90;;;3.50;99.90;;;;;;4926156;29;20047;-93
2022/03/02 05:06:25;;;;;;;37.00;20.30;;;3.60;99.90;;;;;;4940326;29;20054;-93
2022/03/02 05:08:56;;;;;;;38.63;20.47;;;4.80;99.90;;;;;;4940553;29;20045;-94
2022/03/02 05:11:31;;;;;;;37.67;20.17;;;3.50;99.90;;;;;;4940713;29;20047;-94
2022/03/02 05:13:56;;;;;;;41.93;20.97;;;4.30;99.90;;;;;;4940371;29;20510;-94
2022/03/02 05:16:23;;;;;;;38.30;20.00;;;3.60;99.90;;;;;;4939644;29;20134;-94
2022/03/02 05:18:54;;;;;;;39.47;21.07;;;4.50;99.90;;;;;;4940569;28;20045;-94
2022/03/02 05:21:29;;;;;;;36.07;20.50;;;4.90;99.90;;;;;;4939944;29;20051;-94
2022/03/02 05:23:58;;;;;;;37.07;20.93;;;4.00;99.90;;;;;;4940536;29;20046;-94
2022/03/02 05:26:24;;;;;;;39.47;20.93;;;5.10;99.90;;;;;;4940002;29;20110;-93
2022/03/02 05:29:05;;;;;;;37.63;20.47;;;3.80;99.90;;;;;;4938891;29;20047;-94
2022/03/02 05:31:48;;;;;;;39.20;21.00;;;3.90;99.90;;;;;;4938883;29;20101;-93
2022/03/02 05:34:14;;;;;;;36.08;20.23;;;3.60;99.90;;;;;;4939786;29;20043;-93
2022/03/02 05:36:39;;;;;;;38.50;20.60;;;3.60;99.90;;;;;;4931138;29;20043;-93
2022/03/02 05:39:16;;;;;;;37.47;20.77;;;3.60;99.90;;;;;;4939795;29;20381;-94
2022/03/02 05:41:51;;;;;;;34.30;19.30;;;4.90;99.90;;;;;;4932133;29;20053;-93
2022/03/02 05:44:27;;;;;;;35.30;20.33;;;3.70;99.90;;;;;;4939905;29;20373;-94
2022/03/02 05:46:52;;;;;;;37.13;20.43;;;3.40;99.90;;;;;;4939772;29;20059;-94
2022/03/02 05:49:18;;;;;;;38.73;21.53;;;3.60;99.90;;;;;;4939424;29;20118;-93
2022/03/02 05:51:53;;;;;;;34.53;20.93;;;4.50;99.90;;;;;;4939527;29;20053;-93
2022/03/02 05:54:18;;;;;;;35.57;19.67;;;4.30;99.90;;;;;;4939249;29;20138;-93
2022/03/02 05:56:53;;;;;;;38.77;21.10;;;3.50;99.90;;;;;;4939472;29;20130;-93
2022/03/02 05:59:19;;;;;;;39.87;21.80;;;3.90;99.90;;;;;;4939294;29;20047;-93
2022/03/02 06:01:44;;;;;;;37.77;20.57;;;4.80;99.90;;;;;;4939613;29;20044;-93
2022/03/02 06:04:11;;;;;;;37.47;20.73;;;4.60;99.90;;;;;;4939070;29;20049;-93
2022/03/02 06:06:38;;;;;;;38.87;21.43;;;2.80;99.90;;;;;;4946503;23;20094;-93
2022/03/02 06:09:08;;;;;;;37.23;21.07;;;3.70;99.90;;;;;;4939625;29;20043;-94
2022/03/02 06:11:40;;;;;;;37.40;20.27;;;3.70;99.90;;;;;;4940894;29;20385;-93
2022/03/02 06:14:15;;;;;;;40.80;22.30;;;3.70;99.90;;;;;;4940686;29;20043;-93
2022/03/02 06:16:47;;;;;;;39.83;20.53;;;3.90;99.90;;;;;;4963363;28;20045;-94
2022/03/02 06:19:13;;;;;;;37.97;20.50;;;3.60;99.90;;;;;;4961873;29;20058;-93
2022/03/02 06:21:46;;;;;;;37.30;21.03;;;3.70;99.90;;;;;;4939624;29;20040;-93
2022/03/02 06:24:15;;;;;;;39.63;20.85;;;3.40;99.90;;;;;;4938994;29;20043;-93
2022/03/02 06:26:49;;;;;;;35.43;19.77;;;3.80;99.90;;;;;;4938699;29;20053;-93
2022/03/02 06:29:14;;;;;;;37.70;20.90;;;4.50;99.90;;;;;;4938998;29;20043;-93
2022/03/02 06:31:46;;;;;;;40.73;21.17;;;3.50;99.90;;;;;;4938497;29;20046;-93
2022/03/02 06:34:12;;;;;;;40.50;21.17;;;4.80;99.90;;;;;;4938741;29;20050;-93
2022/03/02 06:36:38;;;;;;;38.17;20.10;;;3.40;99.90;;;;;;4934502;23;20047;-93
2022/03/02 06:39:11;;;;;;;36.43;20.33;;;4.60;99.90;;;;;;4918759;29;20087;-94
2022/03/02 06:41:46;;;;;;;37.97;20.93;;;3.60;99.90;;;;;;4920151;29;20044;-94
2022/03/02 06:44:45;;;;;;;38.23;21.23;;;3.60;99.90;;;;;;4925822;23;20051;-94
2022/03/02 06:47:18;;;;;;;38.67;21.77;;;3.50;99.90;;;;;;4926303;29;20511;-94
2022/03/02 06:50:03;;;;;;;40.87;21.67;;;3.30;99.90;;;;;;4924859;29;20055;-94
2022/03/02 06:52:52;;;;;;;35.23;19.43;;;3.70;99.90;;;;;;4920073;29;20054;-93
2022/03/02 06:55:21;;;;;;;39.20;21.00;;;3.70;99.90;;;;;;4919392;29;20400;-93
2022/03/02 06:58:06;;;;;;;37.07;21.53;;;3.50;99.90;;;;;;4919133;29;20043;-93
2022/03/02 07:00:32;;;;;;;36.00;20.17;;;4.00;99.90;;;;;;4919004;29;20054;-93
2022/03/02 07:03:11;;;;;;;38.60;19.73;;;2.70;99.90;;;;;;4919956;29;20388;-93
2022/03/02 07:06:07;;;;;;;35.57;19.17;;;4.70;99.90;;;;;;4919230;29;20138;-94
2022/03/02 07:08:33;;;;;;;35.47;19.37;;;3.70;99.90;;;;;;4919136;29;20048;-94
2022/03/02 07:11:02;;;;;;;35.57;20.17;;;3.50;99.90;;;;;;4919519;29;20044;-93
2022/03/02 07:13:37;;;;;;;37.17;20.43;;;3.90;99.90;;;;;;4918587;29;20048;-93
2022/03/02 07:16:03;;;;;;;35.37;19.30;;;5.40;99.90;;;;;;4919365;29;20040;-93
2022/03/02 07:18:35;;;;;;;35.67;19.77;;;4.00;99.90;;;;;;4919438;29;20119;-94
2022/03/02 07:21:09;;;;;;;36.53;19.37;;;3.70;99.90;;;;;;4918958;29;20039;-94
2022/03/02 07:24:37;;;;;;;37.13;20.63;;;3.80;99.90;;;;;;4903776;29;20044;-94
2022/03/02 07:27:08;;;;;;;33.83;18.60;;;3.80;99.90;;;;;;4843579;29;20541;-95
2022/03/02 07:29:44;;;;;;;36.37;20.23;;;4.60;99.90;;;;;;4842417;29;20057;-91
2022/03/02 07:32:12;;;;;;;34.53;18.83;;;2.60;99.90;;;;;;4842701;29;20149;-91
2022/03/02 07:34:42;;;;;;;34.57;19.63;;;3.60;99.90;;;;;;4842298;29;20065;-91
2022/03/02 07:37:09;;;;;;;36.07;19.57;;;4.30;99.90;;;;;;4842714;29;20403;-92
2022/03/02 07:39:36;;;;;;;34.57;19.20;;;5.20;99.90;;;;;;4843058;29;20081;-89
2022/03/02 07:42:03;;;;;;;34.23;18.37;;;3.80;99.90;;;;;;4841966;29;20062;-89
2022/03/02 07:44:36;;;;;;;33.97;19.20;;;4.00;99.90;;;;;;4842681;29;20171;-89
2022/03/02 07:47:06;;;;;;;35.10;18.77;;;3.70;99.90;;;;;;4851830;29;20054;-89
2022/03/02 07:49:32;;;;;;;35.67;18.93;;;4.10;99.90;;;;;;4918320;29;20040;-90
2022/03/02 07:52:10;;;;;;;34.70;18.47;;;3.80;99.90;;;;;;4918310;29;20048;-91
2022/03/02 07:54:47;;;;;;;34.23;18.70;;;3.80;99.90;;;;;;4918167;29;20044;-89
2022/03/02 07:57:18;;;;;;;33.17;18.53;;;3.60;99.90;;;;;;4904894;29;20060;-90
2022/03/02 07:59:44;;;;;;;30.87;17.23;;;5.10;99.90;;;;;;4908864;29;20044;-90
2022/03/02 08:02:12;;;;;;;31.13;17.10;;;3.90;99.90;;;;;;4905331;29;20432;-90
2022/03/02 08:04:39;;;;;;;32.33;17.33;;;3.80;99.90;;;;;;4907554;29;20155;-90
2022/03/02 08:07:06;;;;;;;35.13;19.50;;;4.10;99.90;;;;;;4912588;29;20044;-88
2022/03/02 08:09:34;;;;;;;31.83;17.83;;;4.20;99.90;;;;;;4920220;29;20103;-89
2022/03/02 08:12:19;;;;;;;35.13;19.17;;;4.00;99.90;;;;;;4903676;29;20072;-89
2022/03/02 08:14:52;;;;;;;33.63;17.30;;;3.90;99.90;;;;;;4921546;29;20077;-89
2022/03/02 08:17:19;;;;;;;33.00;17.47;;;4.00;99.90;;;;;;4935749;29;20595;-89
2022/03/02 08:19:57;;;;;;;29.37;15.97;;;5.40;99.90;;;;;;4936760;29;20129;-90
2022/03/02 08:22:44;;;;;;;30.23;17.97;;;4.50;99.90;;;;;;4937050;29;20051;-90
2022/03/02 08:25:11;;;;;;;33.10;16.77;;;3.80;99.90;;;;;;4928051;29;20526;-88
2022/03/02 08:27:53;;;;;;;30.90;17.50;;;4.20;99.90;;;;;;4917238;29;20517;-88
2022/03/02 08:30:32;;;;;;;30.27;17.57;;;4.30;99.90;;;;;;4934284;29;20050;-87
2022/03/02 08:33:00;;;;;;;32.77;16.73;;;4.60;99.90;;;;;;4933315;29;20050;-92
2022/03/02 08:35:36;;;;;;;31.33;16.73;;;4.70;99.90;;;;;;4936673;29;20510;-86
2022/03/02 08:38:02;;;;;;;27.90;15.53;;;5.30;99.90;;;;;;4934486;29;20436;-87
2022/03/02 08:40:31;;;;;;;30.70;15.93;;;4.50;99.90;;;;;;4950518;29;20559;-88
2022/03/02 08:43:00;;;;;;;28.00;15.00;;;4.60;99.90;;;;;;4952608;29;20047;-86
2022/03/02 08:45:31;;;;;;;30.07;16.00;;;4.70;99.90;;;;;;4970041;28;20113;-86
2022/03/02 08:48:03;;;;;;;30.33;16.10;;;5.40;99.90;;;;;;4955802;28;20505;-87
2022/03/02 08:50:42;;;;;;;30.60;15.67;;;4.80;99.90;;;;;;4956096;28;20126;-86
2022/03/02 08:53:25;;;;;;;30.20;16.10;;;4.90;99.90;;;;;;4957588;28;20047;-87
2022/03/02 08:56:03;;;;;;;30.37;16.53;;;4.80;99.90;;;;;;4976656;28;20085;-86
2022/03/02 08:58:40;;;;;;;28.00;15.53;;;4.80;99.90;;;;;;4959154;28;20070;-86
2022/03/02 09:01:23;;;;;;;28.10;14.80;;;4.90;99.90;;;;;;4975683;28;20047;-86
2022/03/02 09:04:07;;;;;;;27.87;14.97;;;4.90;99.90;;;;;;4976402;28;20043;-87
2022/03/02 09:06:35;;;;;;;;;;;5.00;99.90;;;;;;4976136;28;20070;-86
2022/03/02 09:09:03;;;;;;;25.67;13.07;;;5.10;99.90;;;;;;4976592;28;20025;-87
2022/03/02 09:11:33;;;;;;;26.47;13.80;;;5.30;99.90;;;;;;4976442;28;20053;-87
2022/03/02 09:14:00;;;;;;;26.40;14.40;;;5.20;99.90;;;;;;4975666;28;20051;-86
2022/03/02 09:16:26;;;;;;;26.63;14.67;;;5.40;99.90;;;;;;4958880;28;20364;-86
2022/03/02 09:19:01;;;;;;;25.47;13.97;;;5.50;99.90;;;;;;4959323;28;20058;-87
2022/03/02 09:21:29;;;;;;;30.83;14.33;;;5.50;99.90;;;;;;4975076;28;20435;-87
2022/03/02 09:23:55;;;;;;;25.20;13.57;;;5.50;99.90;;;;;;4958864;28;20530;-87
2022/03/02 09:26:22;;;;;;;25.60;14.27;;;5.70;99.90;;;;;;4958370;28;20042;-86
2022/03/02 09:28:53;;;;;;;25.17;13.00;;;5.70;99.90;;;;;;4957647;28;20085;-86
2022/03/02 09:31:37;;;;;;;26.07;13.93;;;5.80;99.90;;;;;;4958686;28;20082;-87
2022/03/02 09:34:07;;;;;;;25.42;13.63;;;5.90;99.90;;;;;;4957773;28;20039;-87
2022/03/02 09:36:36;;;;;;;25.83;13.60;;;5.80;99.90;;;;;;4958547;28;20494;-86
2022/03/02 09:39:05;;;;;;;22.23;12.17;;;5.90;99.90;;;;;;4975655;28;20058;-87
2022/03/02 09:41:54;;;;;;;25.00;13.70;;;6.10;99.90;;;;;;4975056;28;20364;-86
2022/03/02 09:44:21;;;;;;;25.10;13.37;;;6.20;99.90;;;;;;4957907;28;20499;-86
2022/03/02 09:46:56;;;;;;;23.87;13.37;;;6.30;99.90;;;;;;4958365;28;20129;-86
2022/03/02 09:49:27;;;;;;;26.00;13.70;;;6.30;99.90;;;;;;4974345;28;20455;-84
2022/03/02 09:52:07;;;;;;;25.43;13.20;;;6.40;99.90;;;;;;4975425;28;20380;-84
2022/03/02 09:54:37;;;;;;;22.70;12.23;;;6.40;99.90;;;;;;4957977;28;20054;-86
2022/03/02 09:57:04;;;;;;;25.27;13.07;;;6.50;99.90;;;;;;4930702;23;20059;-85
2022/03/02 09:59:38;;;;;;;23.40;13.03;;;6.60;99.90;;;;;;4920166;29;20090;-85
2022/03/02 10:02:16;;;;;;;24.83;13.50;;;7.90;99.90;;;;;;4919127;29;20051;-86
2022/03/02 10:04:53;;;;;;;23.93;12.83;;;6.30;99.90;;;;;;4920399;29;20051;-86
2022/03/02 10:07:26;;;;;;;23.50;12.57;;;6.80;99.90;;;;;;4919476;29;20048;-86
2022/03/02 10:10:08;;;;;;;22.92;12.35;;;7.00;99.90;;;;;;4918999;29;20051;-86
2022/03/02 10:12:35;;;;;;;24.30;12.90;;;7.10;99.90;;;;;;4919832;29;20057;-86
2022/03/02 10:15:02;;;;;;;24.30;12.83;;;7.20;99.90;;;;;;4919274;29;20563;-85
2022/03/02 10:17:33;;;;;;;23.50;12.83;;;7.30;99.90;;;;;;4918485;29;20055;-86
2022/03/02 10:20:04;;;;;;;23.93;12.63;;;7.40;99.90;;;;;;4919829;29;20089;-86
2022/03/02 10:22:57;;;;;;;22.60;12.57;;;7.60;99.90;;;;;;4919340;29;20047;-85
2022/03/02 10:25:36;;;;;;;22.77;12.80;;;7.70;99.90;;;;;;4918491;29;20051;-85
2022/03/02 10:28:05;;;;;;;24.67;12.87;;;7.90;99.90;;;;;;4919407;29;20047;-85
2022/03/02 10:30:36;;;;;;;22.40;13.17;;;8.20;99.90;;;;;;4918916;29;20134;-86
2022/03/02 10:33:23;;;;;;;22.50;12.17;;;9.50;99.90;;;;;;4919419;29;20083;-86
2022/03/02 10:36:14;;;;;;;24.03;13.20;;;8.50;99.90;;;;;;4935931;29;20452;-86
2022/03/02 10:38:55;;;;;;;22.30;12.33;;;9.20;99.90;;;;;;4918618;29;20051;-85
2022/03/02 10:41:21;;;;;;;22.90;12.50;;;7.70;99.90;;;;;;4919111;29;20391;-85
2022/03/02 10:44:02;;;;;;;23.50;12.60;;;8.60;99.90;;;;;;4935912;29;20047;-86
2022/03/02 10:46:29;;;;;;;24.87;12.73;;;8.80;99.90;;;;;;4935010;29;20056;-86
2022/03/02 10:49:14;;;;;;;23.57;13.53;;;9.00;99.90;;;;;;4919005;29;20051;-86
2022/03/02 10:51:41;;;;;;;23.87;13.13;;;9.10;99.90;;;;;;4935555;29;20063;-85
2022/03/02 10:54:23;;;;;;;23.97;13.60;;;9.20;99.90;;;;;;4918463;29;20052;-86
2022/03/02 10:57:02;;;;;;;23.37;13.13;;;9.30;99.90;;;;;;4935831;29;20107;-86
2022/03/02 10:59:33;;;;;;;25.02;13.68;;;9.50;99.90;;;;;;4917813;29;20054;-86
2022/03/02 11:02:00;;;;;;;22.70;12.75;;;10.20;99.90;;;;;;4936018;29;20420;-85
2022/03/02 11:04:28;;;;;;;22.95;13.18;;;9.70;99.90;;;;;;4935760;29;20473;-86
2022/03/02 11:06:56;;;;;;;24.85;13.30;;;9.80;99.90;;;;;;4918274;29;20056;-86
2022/03/02 11:09:25;;;;;;;23.70;12.67;;;10.60;99.90;;;;;;4918529;29;20051;-86
2022/03/02 11:12:00;;;;;;;22.33;12.50;;;11.20;99.90;;;;;;4935880;29;20131;-87
2022/03/02 11:14:25;;;;;;;23.43;13.60;;;10.20;99.90;;;;;;4934006;29;20496;-87
2022/03/02 11:17:23;;;;;;;19.83;11.97;;;10.30;99.90;;;;;;4935675;29;20058;-87
2022/03/02 11:20:50;;;;;;;;;;;;;;;;;;;;;
2022/03/02 11:23:26;;;;;;;23.17;13.20;;;11.50;99.90;;;;;;4917840;29;20083;-88
2022/03/02 11:25:55;;;;;;;21.87;12.63;;;10.70;99.90;;;;;;4928216;29;20054;-88
2022/03/02 11:28:25;;;;;;;23.35;13.15;;;10.70;99.90;;;;;;4931446;29;20078;-87
2022/03/02 11:31:00;;;;;;;22.13;12.73;;;10.80;99.90;;;;;;4937532;29;20047;-86
2022/03/02 11:33:28;;;;;;;24.05;13.75;;;10.80;99.90;;;;;;4936875;29;20503;-87
2022/03/02 11:36:11;;;;;;;20.17;12.32;;;11.30;99.90;;;;;;4937221;29;20074;-87
2022/03/02 11:38:40;;;;;;;22.30;12.90;;;11.10;99.90;;;;;;4954652;29;20047;-87
2022/03/02 11:41:06;;;;;;;21.77;13.10;;;11.20;99.90;;;;;;4936190;29;20051;-86
2022/03/02 11:43:34;;;;;;;25.17;13.88;;;11.00;99.90;;;;;;4954456;29;20047;-87
2022/03/02 11:46:15;;;;;;;21.17;13.18;;;11.20;99.90;;;;;;4937162;29;20070;-89
2022/03/02 11:49:04;;;;;;;21.83;12.93;;;11.20;99.90;;;;;;4936730;29;20089;-88
2022/03/02 11:51:35;;;;;;;22.58;13.48;;;11.00;99.90;;;;;;4937473;29;20388;-89
2022/03/02 11:54:13;;;;;;;20.77;13.15;;;11.20;99.90;;;;;;4937496;29;20078;-88
2022/03/02 11:56:39;;;;;;;20.45;13.50;;;11.20;99.90;;;;;;4936484;29;20419;-87
2022/03/02 12:08:35;;;;;;;22.52;13.40;;;11.70;99.90;;;;;;4957606;23;20047;-89
2022/03/02 12:11:08;;;;;;;20.45;12.73;;;11.70;99.90;;;;;;5000654;23;20056;-87
2022/03/02 12:14:26;;;;;;;20.85;12.55;;;11.60;99.90;;;;;;4918847;23;20142;-88
2022/03/02 12:17:42;;;;;;;18.80;12.00;;;11.90;99.90;;;;;;4917498;29;20056;-84
2022/03/02 12:20:22;;;;;;;24.42;12.35;;;11.90;99.90;;;;;;4921986;29;20070;-86
2022/03/02 12:22:50;;;;;;;19.77;12.25;;;11.90;99.90;;;;;;4934657;29;20051;-86
2022/03/02 12:25:28;;;;;;;19.40;12.45;;;11.60;99.90;;;;;;4953736;28;20047;-91
2022/03/02 12:28:05;;;;;;;18.58;11.30;;;12.20;99.50;;;;;;4940149;29;20388;-86
2022/03/02 12:30:36;;;;;;;19.52;12.07;;;12.00;98.00;;;;;;4936332;29;20058;-85
2022/03/02 12:33:05;;;;;;;19.60;11.60;;;12.10;99.90;;;;;;4940523;29;20483;-85
2022/03/02 12:35:33;;;;;;;19.58;11.70;;;12.10;99.90;;;;;;4940412;29;20075;-85
2022/03/02 12:38:11;;;;;;;20.52;12.40;;;12.10;99.90;;;;;;4938646;29;20436;-85
2022/03/02 12:40:43;;;;;;;19.23;11.20;;;12.60;99.30;;;;;;4940163;29;20082;-85
2022/03/02 12:43:26;;;;;;;20.45;11.57;;;11.80;97.70;;;;;;4940006;29;20047;-85
2022/03/02 12:45:55;;;;;;;18.45;11.82;;;12.00;97.70;;;;;;4939675;29;20047;-85
2022/03/02 12:48:30;;;;;;;18.13;11.40;;;12.40;99.90;;;;;;4940257;29;20507;-85
2022/03/02 12:50:56;;;;;;;19.83;11.63;;;12.30;98.40;;;;;;4934901;29;20039;-85
2022/03/02 12:53:22;;;;;;;20.25;11.98;;;12.30;98.40;;;;;;4921053;29;20419;-85
2022/03/02 12:55:48;;;;;;;21.50;12.70;;;12.30;98.20;;;;;;4920938;29;20155;-86
2022/03/02 12:58:19;;;;;;;20.17;12.32;;;12.50;98.80;;;;;;4936892;29;20134;-86
2022/03/02 13:00:53;;;;;;;19.58;11.98;;;12.60;98.50;;;;;;4921008;29;20052;-85
2022/03/02 13:03:30;;;;;;;18.83;11.90;;;13.30;96.20;;;;;;4920764;29;20066;-86
2022/03/02 13:06:19;;;;;;;18.52;12.43;;;12.50;96.20;;;;;;4936998;29;20044;-85
2022/03/02 13:09:25;;;;;;;18.35;11.15;;;11.20;96.50;;;;;;4920678;29;20043;-86
2022/03/02 13:12:36;;;;;;;19.17;11.65;;;12.30;95.90;;;;;;4921071;29;20058;-86
2022/03/02 13:15:49;;;;;;;20.45;11.65;;;12.50;94.60;;;;;;4952682;23;20055;-88
2022/03/02 13:18:19;;;;;;;18.30;11.27;;;12.40;93.20;;;;;;4934673;23;20052;-88